Time;durP1;ratioP1;P1;durP2;ratioP2;P2;SDS_P1;SDS_P2;PMS_P1;PMS_P2;Temp;Humidity;BMP_temperature;BMP_pressure;BME280_temperature;BME280_humidity;BME280_pressure;Samples;Min_cycle;Max_cycle;Signal;HPM_P1;HPM_P2
2021/08/14 00:02:23;;;;;;;2.90;2.00;;;;;;;;;;5010353;28;20069;-64
2021/08/14 00:04:50;;;;;;;1.05;0.95;;;;;;;;;;5009151;28;20661;-64
2021/08/14 00:07:17;;;;;;;1.40;1.30;;;;;;;;;;5003148;28;20069;-64
2021/08/14 00:09:43;;;;;;;1.00;1.00;;;;;;;;;;5006507;28;20428;-64
2021/08/14 00:12:10;;;;;;;0.93;0.93;;;;;;;;;;5010569;28;20030;-64
2021/08/14 00:14:37;;;;;;;1.25;0.93;;;;;;;;;;5010179;28;20096;-64
2021/08/14 00:17:04;;;;;;;1.15;1.05;;;;;;;;;;5009717;28;20042;-64
2021/08/14 00:19:31;;;;;;;1.00;0.90;;;;;;;;;;5001433;28;20061;-64
2021/08/14 00:21:58;;;;;;;1.10;1.10;;;;;;;;;;5009585;28;20045;-63
2021/08/14 00:24:25;;;;;;;0.95;0.95;;;;;;;;;;5009103;28;20108;-63
2021/08/14 00:26:52;;;;;;;1.20;1.10;;;;;;;;;;5010386;28;20046;-63
2021/08/14 00:29:18;;;;;;;1.17;1.17;;;;;;;;;;5008320;28;20524;-63
2021/08/14 00:31:45;;;;;;;1.00;1.00;;;;;;;;;;5010901;28;20104;-64
2021/08/14 00:34:12;;;;;;;3.10;1.02;;;;;;;;;;5007920;28;20391;-64
2021/08/14 00:36:38;;;;;;;2.22;1.17;;;;;;;;;;4994789;28;20030;-64
2021/08/14 00:39:05;;;;;;;1.30;1.00;;;;;;;;;;5010922;28;20034;-64
2021/08/14 00:41:32;;;;;;;1.10;1.10;;;;;;;;;;5007336;28;20057;-64
2021/08/14 00:44:02;;;;;;;1.80;1.17;;;;;;;;;;5027409;28;20048;-64
2021/08/14 00:46:29;;;;;;;1.05;1.05;;;;;;;;;;5005871;28;20430;-64
2021/08/14 00:48:56;;;;;;;1.85;1.10;;;;;;;;;;5005893;28;20498;-64
2021/08/14 00:51:23;;;;;;;1.10;1.00;;;;;;;;;;5005730;28;20030;-64
2021/08/14 00:53:50;;;;;;;2.58;1.10;;;;;;;;;;5010219;28;20092;-64
2021/08/14 00:56:21;;;;;;;1.52;1.20;;;;;;;;;;4993282;28;20070;-64
2021/08/14 00:58:51;;;;;;;1.05;1.05;;;;;;;;;;5002716;28;20085;-64
2021/08/14 01:01:20;;;;;;;1.65;1.35;;;;;;;;;;4998888;28;20052;-64
2021/08/14 01:03:47;;;;;;;1.30;1.08;;;;;;;;;;4999303;28;20133;-64
2021/08/14 01:06:14;;;;;;;1.77;1.02;;;;;;;;;;5008057;28;20042;-64
2021/08/14 01:08:44;;;;;;;1.00;1.00;;;;;;;;;;5008948;28;20052;-64
2021/08/14 01:11:11;;;;;;;1.20;1.20;;;;;;;;;;5010469;28;20072;-64
2021/08/14 01:13:39;;;;;;;2.45;1.33;;;;;;;;;;5008435;28;20642;-64
2021/08/14 01:16:06;;;;;;;1.08;1.08;;;;;;;;;;5008843;28;20049;-64
2021/08/14 01:18:33;;;;;;;2.83;1.60;;;;;;;;;;5008675;28;20439;-64
2021/08/14 01:21:00;;;;;;;1.75;1.10;;;;;;;;;;5007394;28;20077;-64
2021/08/14 01:23:27;;;;;;;3.35;1.20;;;;;;;;;;5012450;28;20057;-64
2021/08/14 01:26:07;;;;;;;1.42;1.42;;;;;;;;;;5008591;28;20061;-64
2021/08/14 01:28:34;;;;;;;1.70;1.20;;;;;;;;;;5009092;28;20597;-64
2021/08/14 01:31:02;;;;;;;1.50;1.20;;;;;;;;;;5007066;28;20038;-64
2021/08/14 01:33:34;;;;;;;1.83;1.25;;;;;;;;;;5004932;28;20459;-64
2021/08/14 01:36:01;;;;;;;1.50;1.40;;;;;;;;;;5006824;28;20035;-64
2021/08/14 01:38:28;;;;;;;1.38;1.27;;;;;;;;;;5005120;28;20085;-65
2021/08/14 01:40:54;;;;;;;1.77;1.65;;;;;;;;;;5007169;28;20417;-64
2021/08/14 01:43:22;;;;;;;1.20;1.10;;;;;;;;;;5006960;28;20038;-64
2021/08/14 01:45:48;;;;;;;1.40;1.40;;;;;;;;;;5005564;28;20121;-64
2021/08/14 01:48:16;;;;;;;1.55;1.45;;;;;;;;;;5010876;28;20030;-64
2021/08/14 01:50:43;;;;;;;1.35;1.35;;;;;;;;;;5005322;28;20042;-64
2021/08/14 01:53:10;;;;;;;1.45;1.35;;;;;;;;;;5014229;28;20038;-64
2021/08/14 01:55:37;;;;;;;1.35;1.35;;;;;;;;;;5010353;28;20081;-64
2021/08/14 01:58:03;;;;;;;1.70;1.30;;;;;;;;;;5006565;28;20038;-65
2021/08/14 02:00:30;;;;;;;2.25;1.38;;;;;;;;;;5011000;28;20077;-64
2021/08/14 02:02:58;;;;;;;3.65;1.17;;;;;;;;;;5006746;28;20034;-65
2021/08/14 02:05:25;;;;;;;1.30;1.30;;;;;;;;;;5004178;28;20053;-64
2021/08/14 02:07:52;;;;;;;1.45;1.35;;;;;;;;;;5004669;28;20042;-64
2021/08/14 02:10:19;;;;;;;4.22;1.55;;;;;;;;;;5007934;28;20462;-65
2021/08/14 02:12:45;;;;;;;1.30;1.30;;;;;;;;;;4999191;28;20038;-65
2021/08/14 02:15:13;;;;;;;1.17;1.08;;;;;;;;;;5007795;28;20046;-65
2021/08/14 02:17:40;;;;;;;3.33;1.83;;;;;;;;;;5007476;28;20589;-64
2021/08/14 02:20:06;;;;;;;1.50;1.40;;;;;;;;;;5009697;28;20474;-65
2021/08/14 02:22:33;;;;;;;1.23;1.23;;;;;;;;;;5002125;28;20061;-64
2021/08/14 02:25:00;;;;;;;1.58;1.48;;;;;;;;;;4995691;28;20062;-64
2021/08/14 02:27:31;;;;;;;1.45;1.40;;;;;;;;;;5003875;28;20054;-64
2021/08/14 02:29:58;;;;;;;1.75;1.65;;;;;;;;;;5009216;28;20061;-64
2021/08/14 02:32:24;;;;;;;1.13;1.02;;;;;;;;;;5010381;28;20088;-64
2021/08/14 02:34:51;;;;;;;1.30;1.20;;;;;;;;;;5008166;28;20037;-64
2021/08/14 02:37:18;;;;;;;1.40;1.30;;;;;;;;;;4999412;28;20046;-64
2021/08/14 02:39:44;;;;;;;2.70;1.30;;;;;;;;;;5006372;28;20037;-64
2021/08/14 02:42:11;;;;;;;2.15;2.05;;;;;;;;;;5007663;28;20026;-64
2021/08/14 02:44:38;;;;;;;1.50;1.40;;;;;;;;;;5001537;28;20096;-65
2021/08/14 02:47:06;;;;;;;1.40;1.30;;;;;;;;;;5007346;28;20544;-64
2021/08/14 02:49:33;;;;;;;10.48;1.70;;;;;;;;;;5004114;28;20565;-64
2021/08/14 02:51:59;;;;;;;1.42;1.35;;;;;;;;;;5004112;28;20049;-64
2021/08/14 02:54:26;;;;;;;1.60;1.50;;;;;;;;;;5012266;28;20041;-64
2021/08/14 02:56:53;;;;;;;2.53;1.33;;;;;;;;;;5012585;28;20056;-64
2021/08/14 02:59:20;;;;;;;1.83;1.73;;;;;;;;;;5010171;28;20041;-64
2021/08/14 03:01:46;;;;;;;2.45;1.48;;;;;;;;;;5011431;28;20541;-64
2021/08/14 03:04:14;;;;;;;1.60;1.50;;;;;;;;;;5005041;28;20077;-64
2021/08/14 03:06:41;;;;;;;5.85;1.75;;;;;;;;;;5004692;28;20044;-64
2021/08/14 03:09:08;;;;;;;1.63;1.52;;;;;;;;;;5012556;28;20048;-64
2021/08/14 03:11:36;;;;;;;2.95;1.60;;;;;;;;;;5010187;28;20713;-64
2021/08/14 03:14:03;;;;;;;1.42;1.42;;;;;;;;;;5010922;28;20037;-65
2021/08/14 03:16:29;;;;;;;1.40;1.35;;;;;;;;;;5011241;28;20070;-65
2021/08/14 03:18:56;;;;;;;2.47;2.28;;;;;;;;;;5005709;28;20498;-64
2021/08/14 03:21:23;;;;;;;2.55;1.63;;;;;;;;;;5006666;28;20034;-65
2021/08/14 03:23:50;;;;;;;2.00;1.52;;;;;;;;;;5010416;28;20053;-65
2021/08/14 03:26:16;;;;;;;2.35;1.50;;;;;;;;;;5011103;28;20041;-65
2021/08/14 03:28:43;;;;;;;1.63;1.52;;;;;;;;;;5001133;28;20081;-65
2021/08/14 03:31:10;;;;;;;1.63;1.52;;;;;;;;;;5011592;28;20356;-64
2021/08/14 03:33:37;;;;;;;2.17;2.08;;;;;;;;;;5008260;28;20046;-65
2021/08/14 03:36:04;;;;;;;5.95;1.80;;;;;;;;;;5008369;28;20079;-65
2021/08/14 03:38:30;;;;;;;2.50;1.80;;;;;;;;;;5008816;28;20050;-65
2021/08/14 03:40:57;;;;;;;2.55;1.50;;;;;;;;;;5005384;28;20047;-65
2021/08/14 03:43:24;;;;;;;2.08;1.85;;;;;;;;;;5005406;28;20038;-65
2021/08/14 03:45:53;;;;;;;2.20;2.10;;;;;;;;;;5011897;28;20134;-65
2021/08/14 03:48:20;;;;;;;2.13;2.03;;;;;;;;;;5005114;28;20596;-65
2021/08/14 03:50:47;;;;;;;1.48;1.38;;;;;;;;;;5006720;28;20033;-65
2021/08/14 03:53:14;;;;;;;1.80;1.70;;;;;;;;;;5007629;28;20049;-65
2021/08/14 03:55:40;;;;;;;3.60;1.67;;;;;;;;;;5010895;28;20083;-66
2021/08/14 03:58:07;;;;;;;1.88;1.77;;;;;;;;;;5008790;28;20072;-65
2021/08/14 04:00:34;;;;;;;2.55;2.25;;;;;;;;;;5003279;28;20046;-65
2021/08/14 04:03:01;;;;;;;1.58;1.50;;;;;;;;;;5003460;28;20045;-66
2021/08/14 04:05:28;;;;;;;1.60;1.40;;;;;;;;;;4997210;28;20042;-65
2021/08/14 04:07:55;;;;;;;1.88;1.77;;;;;;;;;;5008280;28;20453;-66
2021/08/14 04:10:21;;;;;;;1.50;1.40;;;;;;;;;;5009789;28;20042;-65
2021/08/14 04:12:50;;;;;;;2.25;1.45;;;;;;;;;;5010813;28;20121;-66
2021/08/14 04:15:17;;;;;;;2.17;1.95;;;;;;;;;;5010856;28;20030;-65
2021/08/14 04:17:44;;;;;;;1.85;1.80;;;;;;;;;;5007981;28;20037;-65
2021/08/14 04:20:11;;;;;;;3.05;2.10;;;;;;;;;;5009010;28;20124;-65
2021/08/14 04:22:38;;;;;;;1.85;1.75;;;;;;;;;;5011018;28;20430;-65
2021/08/14 04:25:05;;;;;;;3.75;2.15;;;;;;;;;;5003656;28;20033;-66
2021/08/14 04:27:32;;;;;;;1.80;1.48;;;;;;;;;;5009832;28;20065;-65
2021/08/14 04:30:01;;;;;;;2.65;1.83;;;;;;;;;;5012250;28;20045;-66
2021/08/14 04:32:35;;;;;;;2.08;1.98;;;;;;;;;;5008930;28;20050;-65
2021/08/14 04:35:05;;;;;;;2.35;1.52;;;;;;;;;;5009852;28;20044;-66
2021/08/14 04:37:32;;;;;;;3.13;2.03;;;;;;;;;;5002100;28;20124;-65
2021/08/14 04:39:59;;;;;;;2.08;1.80;;;;;;;;;;5003634;28;20092;-66
2021/08/14 04:42:26;;;;;;;1.67;1.58;;;;;;;;;;5003365;28;20054;-66
2021/08/14 04:44:52;;;;;;;2.55;2.45;;;;;;;;;;5003139;28;20142;-66
2021/08/14 04:47:19;;;;;;;2.35;1.88;;;;;;;;;;4999722;28;20042;-65
2021/08/14 04:49:46;;;;;;;3.25;1.90;;;;;;;;;;5012000;28;20084;-65
2021/08/14 04:52:13;;;;;;;2.30;2.20;;;;;;;;;;5007581;28;20064;-65
2021/08/14 04:54:40;;;;;;;2.25;1.88;;;;;;;;;;5000404;28;20046;-65
2021/08/14 04:57:07;;;;;;;1.70;1.52;;;;;;;;;;5004659;28;20034;-65
2021/08/14 04:59:34;;;;;;;1.50;1.40;;;;;;;;;;5010377;28;20073;-66
2021/08/14 05:02:03;;;;;;;3.00;1.48;;;;;;;;;;5010542;28;20547;-65
2021/08/14 05:04:30;;;;;;;3.03;1.83;;;;;;;;;;5006124;28;20050;-65
2021/08/14 05:06:57;;;;;;;4.45;3.20;;;;;;;;;;4997070;28;20053;-66
2021/08/14 05:09:23;;;;;;;2.63;2.05;;;;;;;;;;5008463;28;20199;-66
2021/08/14 05:11:50;;;;;;;2.75;1.45;;;;;;;;;;5000315;28;20427;-66
2021/08/14 05:14:17;;;;;;;2.63;2.17;;;;;;;;;;5009864;28;20084;-66
2021/08/14 05:16:45;;;;;;;1.83;1.73;;;;;;;;;;5009333;28;20278;-66
2021/08/14 05:19:12;;;;;;;2.53;2.30;;;;;;;;;;5006701;28;20045;-66
2021/08/14 05:21:39;;;;;;;2.20;2.10;;;;;;;;;;5010849;28;20058;-66
2021/08/14 05:24:05;;;;;;;3.72;2.25;;;;;;;;;;5005798;28;20042;-66
2021/08/14 05:26:32;;;;;;;7.30;2.13;;;;;;;;;;5010047;28;20038;-66
2021/08/14 05:28:59;;;;;;;2.08;1.98;;;;;;;;;;5005931;28;20117;-66
2021/08/14 05:31:26;;;;;;;1.80;1.70;;;;;;;;;;5007390;28;20061;-66
2021/08/14 05:33:53;;;;;;;1.85;1.40;;;;;;;;;;5009049;28;20057;-66
2021/08/14 05:36:19;;;;;;;2.05;1.92;;;;;;;;;;5005755;28;20161;-66
2021/08/14 05:38:46;;;;;;;2.30;1.17;;;;;;;;;;5006768;28;20058;-66
2021/08/14 05:41:13;;;;;;;1.83;1.73;;;;;;;;;;5009156;28;20046;-66
2021/08/14 05:43:40;;;;;;;1.52;1.42;;;;;;;;;;4996526;28;20038;-66
2021/08/14 05:46:06;;;;;;;1.55;1.30;;;;;;;;;;5006848;28;20072;-66
2021/08/14 05:48:33;;;;;;;1.45;1.23;;;;;;;;;;5010559;28;20057;-66
2021/08/14 05:51:00;;;;;;;1.83;1.58;;;;;;;;;;4993598;28;20121;-66
2021/08/14 05:53:27;;;;;;;3.92;1.85;;;;;;;;;;5004820;28;20034;-66
2021/08/14 05:55:53;;;;;;;2.47;1.65;;;;;;;;;;4998657;28;20065;-66
2021/08/14 05:58:20;;;;;;;3.05;1.48;;;;;;;;;;4998027;28;20053;-66
2021/08/14 06:00:51;;;;;;;3.78;1.73;;;;;;;;;;5003684;28;20149;-66
2021/08/14 06:03:18;;;;;;;3.35;2.47;;;;;;;;;;5009171;28;20391;-66
2021/08/14 06:05:45;;;;;;;1.95;1.80;;;;;;;;;;5004738;28;20061;-66
2021/08/14 06:08:15;;;;;;;1.67;1.60;;;;;;;;;;5004738;28;20038;-66
2021/08/14 06:10:41;;;;;;;2.47;2.30;;;;;;;;;;5002462;28;20038;-66
2021/08/14 06:13:08;;;;;;;2.50;2.30;;;;;;;;;;5007771;28;20042;-66
2021/08/14 06:15:37;;;;;;;2.42;1.65;;;;;;;;;;4991924;28;20152;-66
2021/08/14 06:18:04;;;;;;;6.82;1.77;;;;;;;;;;5006227;28;20038;-66
2021/08/14 06:20:31;;;;;;;4.70;2.33;;;;;;;;;;5008285;28;20034;-66
2021/08/14 06:22:58;;;;;;;1.60;1.50;;;;;;;;;;5001443;28;20045;-66
2021/08/14 06:25:25;;;;;;;3.05;2.65;;;;;;;;;;5003816;28;20092;-66
2021/08/14 06:27:52;;;;;;;1.27;1.27;;;;;;;;;;4995528;28;20062;-66
2021/08/14 06:30:18;;;;;;;2.10;1.90;;;;;;;;;;5014363;28;20094;-66
2021/08/14 06:32:45;;;;;;;1.65;1.55;;;;;;;;;;5011417;28;20034;-66
2021/08/14 06:35:12;;;;;;;1.63;1.42;;;;;;;;;;5013159;28;20038;-66
2021/08/14 06:37:40;;;;;;;1.77;1.67;;;;;;;;;;5011658;28;20054;-66
2021/08/14 06:40:07;;;;;;;2.22;1.85;;;;;;;;;;5006654;28;20599;-66
2021/08/14 06:42:33;;;;;;;2.78;1.67;;;;;;;;;;5003024;28;20771;-66
2021/08/14 06:45:00;;;;;;;1.35;1.25;;;;;;;;;;5003589;28;20052;-66
2021/08/14 06:47:27;;;;;;;1.98;1.10;;;;;;;;;;5012184;28;20053;-66
2021/08/14 06:49:53;;;;;;;1.17;1.05;;;;;;;;;;5007560;28;20100;-65
2021/08/14 06:52:20;;;;;;;1.00;1.00;;;;;;;;;;5000192;28;20042;-65
2021/08/14 06:54:47;;;;;;;2.15;1.10;;;;;;;;;;5001623;28;20072;-65
2021/08/14 06:57:14;;;;;;;2.40;1.50;;;;;;;;;;5006055;28;20049;-66
2021/08/14 06:59:41;;;;;;;1.50;1.40;;;;;;;;;;4999240;28;20613;-65
2021/08/14 07:02:08;;;;;;;2.20;1.10;;;;;;;;;;5007135;28;20398;-66
2021/08/14 07:04:36;;;;;;;1.55;1.08;;;;;;;;;;5000525;28;20064;-66
2021/08/14 07:07:03;;;;;;;1.35;1.25;;;;;;;;;;5000149;28;20101;-65
2021/08/14 07:09:30;;;;;;;2.05;1.38;;;;;;;;;;5007809;28;20052;-66
2021/08/14 07:11:56;;;;;;;3.17;1.05;;;;;;;;;;5002521;28;20050;-65
2021/08/14 07:14:23;;;;;;;1.65;1.25;;;;;;;;;;5008454;28;20038;-65
2021/08/14 07:16:50;;;;;;;1.83;1.08;;;;;;;;;;5002448;28;20045;-65
2021/08/14 07:19:17;;;;;;;3.90;1.23;;;;;;;;;;5004568;28;20042;-65
2021/08/14 07:21:43;;;;;;;2.78;1.00;;;;;;;;;;5010524;28;20073;-65
2021/08/14 07:24:12;;;;;;;3.47;0.93;;;;;;;;;;4997942;28;20380;-65
2021/08/14 07:26:39;;;;;;;3.63;1.00;;;;;;;;;;5012227;28;20064;-65
2021/08/14 07:29:05;;;;;;;3.13;1.33;;;;;;;;;;5013377;28;20034;-65
2021/08/14 07:31:32;;;;;;;1.00;1.00;;;;;;;;;;4996075;28;20043;-65
2021/08/14 07:33:59;;;;;;;3.05;1.33;;;;;;;;;;5006267;28;20038;-65
2021/08/14 07:36:26;;;;;;;1.55;1.00;;;;;;;;;;4995719;28;20042;-65
2021/08/14 07:38:52;;;;;;;0.90;0.90;;;;;;;;;;5012593;28;20081;-65
2021/08/14 07:41:19;;;;;;;0.98;0.80;;;;;;;;;;5009086;28;20045;-65
2021/08/14 07:43:46;;;;;;;1.02;0.98;;;;;;;;;;4995137;28;20069;-65
2021/08/14 07:46:13;;;;;;;1.15;1.05;;;;;;;;;;5010131;28;20038;-65
2021/08/14 07:48:39;;;;;;;3.22;0.82;;;;;;;;;;5011230;28;20037;-65
2021/08/14 07:51:06;;;;;;;2.47;1.08;;;;;;;;;;5008530;28;20109;-65
2021/08/14 07:53:33;;;;;;;1.00;1.00;;;;;;;;;;5011422;28;20053;-65
2021/08/14 07:56:00;;;;;;;1.83;0.82;;;;;;;;;;5000224;28;20036;-65
2021/08/14 07:58:26;;;;;;;2.30;1.05;;;;;;;;;;5007112;28;20513;-65
2021/08/14 08:00:54;;;;;;;3.17;0.90;;;;;;;;;;4998536;28;20053;-65
2021/08/14 08:03:21;;;;;;;1.00;0.90;;;;;;;;;;5010977;28;20049;-65
2021/08/14 08:05:48;;;;;;;2.22;0.90;;;;;;;;;;5010325;28;20037;-65
2021/08/14 08:08:15;;;;;;;0.93;0.85;;;;;;;;;;5028280;28;20037;-64
2021/08/14 08:10:41;;;;;;;2.47;0.80;;;;;;;;;;5011397;28;20038;-64
2021/08/14 08:13:08;;;;;;;4.43;1.25;;;;;;;;;;5002387;28;20033;-64
2021/08/14 08:15:35;;;;;;;0.90;0.90;;;;;;;;;;5008622;28;20050;-64
2021/08/14 08:18:02;;;;;;;1.98;1.05;;;;;;;;;;5008850;28;20415;-64
2021/08/14 08:20:29;;;;;;;1.45;0.90;;;;;;;;;;5006662;28;20046;-64
2021/08/14 08:22:55;;;;;;;2.35;0.90;;;;;;;;;;5004444;28;20062;-64
2021/08/14 08:25:22;;;;;;;1.90;0.85;;;;;;;;;;4999826;28;20100;-64
2021/08/14 08:27:50;;;;;;;2.97;0.80;;;;;;;;;;5003279;28;20033;-64
2021/08/14 08:30:17;;;;;;;0.73;0.73;;;;;;;;;;5008976;28;20057;-65
2021/08/14 08:32:44;;;;;;;3.50;0.75;;;;;;;;;;4993738;28;20415;-64
2021/08/14 08:35:12;;;;;;;5.10;0.60;;;;;;;;;;5012102;28;20034;-64
2021/08/14 08:37:39;;;;;;;1.20;0.68;;;;;;;;;;5010197;28;20053;-64
2021/08/14 08:40:11;;;;;;;0.70;0.70;;;;;;;;;;5001082;28;20046;-64
2021/08/14 08:42:39;;;;;;;0.73;0.73;;;;;;;;;;5007519;28;20062;-64
2021/08/14 08:45:06;;;;;;;2.40;0.65;;;;;;;;;;5005541;28;20112;-63
2021/08/14 08:47:34;;;;;;;2.10;0.60;;;;;;;;;;5010706;28;20034;-64
2021/08/14 08:50:02;;;;;;;0.90;0.60;;;;;;;;;;5009688;28;20540;-63
2021/08/14 08:52:28;;;;;;;0.63;0.63;;;;;;;;;;4993799;28;20038;-64
2021/08/14 08:54:55;;;;;;;0.82;0.60;;;;;;;;;;5009529;28;20041;-63
2021/08/14 08:57:22;;;;;;;0.95;0.50;;;;;;;;;;5009579;28;20080;-63
2021/08/14 08:59:49;;;;;;;1.48;0.60;;;;;;;;;;5005729;28;20100;-63
2021/08/14 09:02:20;;;;;;;0.93;0.60;;;;;;;;;;5010253;28;20041;-63
2021/08/14 09:04:47;;;;;;;0.70;0.60;;;;;;;;;;4992919;28;20042;-63
2021/08/14 09:07:26;;;;;;;0.95;0.50;;;;;;;;;;5003925;28;20034;-63
2021/08/14 09:09:57;;;;;;;1.70;0.63;;;;;;;;;;5000866;28;20101;-63
2021/08/14 09:12:30;;;;;;;1.00;0.50;;;;;;;;;;4994432;28;20038;-63
2021/08/14 09:14:57;;;;;;;0.60;0.60;;;;;;;;;;5006973;28;20421;-63
2021/08/14 09:17:28;;;;;;;2.40;0.60;;;;;;;;;;4996748;28;20037;-63
2021/08/14 09:20:04;;;;;;;1.40;0.60;;;;;;;;;;4998369;28;20074;-63
2021/08/14 09:22:31;;;;;;;3.50;0.63;;;;;;;;;;5003400;28;20116;-63
2021/08/14 09:25:11;;;;;;;1.45;0.50;;;;;;;;;;5005785;28;20560;-63
2021/08/14 09:27:51;;;;;;;0.50;0.50;;;;;;;;;;5007770;28;20559;-63
2021/08/14 09:30:18;;;;;;;1.10;0.60;;;;;;;;;;5006642;28;20030;-63
2021/08/14 09:33:03;;;;;;;0.55;0.50;;;;;;;;;;5009163;28;20049;-63
2021/08/14 09:35:33;;;;;;;0.50;0.50;;;;;;;;;;5003971;28;20116;-63
2021/08/14 09:38:04;;;;;;;0.50;0.50;;;;;;;;;;5006785;28;20050;-63
2021/08/14 09:40:44;;;;;;;0.60;0.60;;;;;;;;;;5009985;28;20052;-63
2021/08/14 09:43:12;;;;;;;1.25;0.50;;;;;;;;;;5005043;28;20034;-63
2021/08/14 09:45:51;;;;;;;0.50;0.50;;;;;;;;;;5002363;28;20053;-63
2021/08/14 09:48:19;;;;;;;6.07;0.80;;;;;;;;;;5008112;28;20132;-63
2021/08/14 09:50:46;;;;;;;0.50;0.50;;;;;;;;;;5008180;28;20129;-63
2021/08/14 09:53:14;;;;;;;0.50;0.50;;;;;;;;;;5008663;28;20037;-63
2021/08/14 09:55:41;;;;;;;0.43;0.40;;;;;;;;;;5008079;28;20034;-63
2021/08/14 09:58:12;;;;;;;2.42;0.40;;;;;;;;;;5004813;28;20037;-63
2021/08/14 10:00:39;;;;;;;1.05;0.40;;;;;;;;;;5008596;28;20066;-63
2021/08/14 10:03:07;;;;;;;0.40;0.40;;;;;;;;;;5006199;28;20486;-63
2021/08/14 10:05:34;;;;;;;0.52;0.50;;;;;;;;;;5025239;28;20527;-63
2021/08/14 10:08:02;;;;;;;0.80;0.43;;;;;;;;;;5006785;28;20581;-63
2021/08/14 10:10:29;;;;;;;0.45;0.45;;;;;;;;;;5008989;28;20088;-63
2021/08/14 10:12:57;;;;;;;0.47;0.47;;;;;;;;;;4997478;28;20077;-63
2021/08/14 10:15:24;;;;;;;0.80;0.80;;;;;;;;;;5007000;28;20057;-63
2021/08/14 10:17:51;;;;;;;2.25;0.40;;;;;;;;;;5004574;28;20037;-63
2021/08/14 10:20:17;;;;;;;2.42;0.50;;;;;;;;;;5006008;28;20598;-62
2021/08/14 10:22:45;;;;;;;1.73;0.40;;;;;;;;;;5007010;28;20092;-63
2021/08/14 10:25:16;;;;;;;0.75;0.40;;;;;;;;;;4997718;28;20108;-63
2021/08/14 10:28:04;;;;;;;0.50;0.50;;;;;;;;;;5006368;28;20038;-62
2021/08/14 10:30:34;;;;;;;2.05;0.40;;;;;;;;;;4999748;28;20476;-63
2021/08/14 10:33:02;;;;;;;1.08;0.45;;;;;;;;;;5009950;28;20125;-63
2021/08/14 10:35:29;;;;;;;2.22;0.40;;;;;;;;;;5006096;28;20064;-62
2021/08/14 10:37:56;;;;;;;2.40;0.70;;;;;;;;;;5008338;28;20061;-63
2021/08/14 10:40:22;;;;;;;3.10;0.40;;;;;;;;;;5006794;28;20502;-62
2021/08/14 10:42:49;;;;;;;1.23;0.38;;;;;;;;;;5006200;28;20073;-62
2021/08/14 10:45:22;;;;;;;3.65;0.40;;;;;;;;;;5008160;28;20042;-62
2021/08/14 10:47:52;;;;;;;2.05;0.40;;;;;;;;;;5005468;28;20433;-62
2021/08/14 10:50:31;;;;;;;4.53;1.23;;;;;;;;;;5003299;28;20471;-63
2021/08/14 10:53:10;;;;;;;0.73;0.40;;;;;;;;;;5005695;28;20414;-63
2021/08/14 10:55:41;;;;;;;0.60;0.30;;;;;;;;;;5002556;28;20517;-62
2021/08/14 10:58:27;;;;;;;0.80;0.40;;;;;;;;;;5014206;28;20061;-62
2021/08/14 11:01:13;;;;;;;0.32;0.30;;;;;;;;;;5005769;28;20104;-63
2021/08/14 11:03:40;;;;;;;0.30;0.30;;;;;;;;;;5007904;28;20125;-62
2021/08/14 11:06:25;;;;;;;2.95;0.47;;;;;;;;;;5009486;28;20124;-62
2021/08/14 11:09:10;;;;;;;0.30;0.30;;;;;;;;;;5007225;28;20048;-62
2021/08/14 11:11:37;;;;;;;0.50;0.32;;;;;;;;;;5002617;28;20038;-62
2021/08/14 11:14:08;;;;;;;1.70;0.40;;;;;;;;;;5006579;28;20040;-62
2021/08/14 11:16:57;;;;;;;0.43;0.30;;;;;;;;;;5011773;28;20470;-63
2021/08/14 11:19:42;;;;;;;0.40;0.40;;;;;;;;;;4999315;28;20062;-63
2021/08/14 11:22:19;;;;;;;0.40;0.30;;;;;;;;;;5012982;28;20050;-62
2021/08/14 11:24:46;;;;;;;0.77;0.30;;;;;;;;;;5010140;28;20045;-62
2021/08/14 11:27:17;;;;;;;0.50;0.32;;;;;;;;;;5022662;28;20037;-62
2021/08/14 11:29:44;;;;;;;0.77;0.30;;;;;;;;;;5008076;28;20100;-62
2021/08/14 11:32:12;;;;;;;0.40;0.40;;;;;;;;;;5012028;28;20034;-62
2021/08/14 11:34:43;;;;;;;0.40;0.40;;;;;;;;;;5011641;28;20096;-62
2021/08/14 11:37:09;;;;;;;2.92;0.40;;;;;;;;;;5010132;28;20049;-62
2021/08/14 11:39:36;;;;;;;0.30;0.30;;;;;;;;;;5010217;28;20053;-62
2021/08/14 11:42:04;;;;;;;1.45;0.40;;;;;;;;;;5003473;28;20038;-62
2021/08/14 11:44:32;;;;;;;0.32;0.30;;;;;;;;;;5012184;28;20351;-62
2021/08/14 11:47:00;;;;;;;0.30;0.30;;;;;;;;;;4994540;28;20126;-62
2021/08/14 11:49:27;;;;;;;2.72;0.40;;;;;;;;;;5010897;28;20133;-62
2021/08/14 11:52:01;;;;;;;0.30;0.30;;;;;;;;;;5009881;28;20042;-62
2021/08/14 11:54:29;;;;;;;0.85;0.32;;;;;;;;;;4999808;28;20038;-62
2021/08/14 11:57:07;;;;;;;0.40;0.30;;;;;;;;;;5009125;28;20049;-62
2021/08/14 11:59:34;;;;;;;0.30;0.30;;;;;;;;;;5003811;28;20054;-62
2021/08/14 12:02:01;;;;;;;0.30;0.30;;;;;;;;;;5003871;28;20042;-62
2021/08/14 12:04:28;;;;;;;1.58;0.30;;;;;;;;;;5000593;28;20092;-62
2021/08/14 12:06:58;;;;;;;0.40;0.40;;;;;;;;;;5011595;28;20037;-62
2021/08/14 12:09:25;;;;;;;0.50;0.40;;;;;;;;;;5005904;28;20043;-62
2021/08/14 12:11:55;;;;;;;0.85;0.55;;;;;;;;;;4999716;28;20042;-62
2021/08/14 12:14:22;;;;;;;0.63;0.40;;;;;;;;;;5008801;28;20053;-62
2021/08/14 12:17:07;;;;;;;0.50;0.30;;;;;;;;;;5002112;28;20068;-62
2021/08/14 12:19:34;;;;;;;0.40;0.40;;;;;;;;;;4999843;28;20096;-61
2021/08/14 12:22:10;;;;;;;1.48;0.40;;;;;;;;;;5011088;28;20046;-62
2021/08/14 12:24:36;;;;;;;1.33;0.30;;;;;;;;;;5009725;28;20433;-62
2021/08/14 12:27:20;;;;;;;1.15;0.40;;;;;;;;;;4995025;28;20035;-62
2021/08/14 12:29:47;;;;;;;0.40;0.30;;;;;;;;;;5006352;28;20093;-62
2021/08/14 12:32:14;;;;;;;2.70;0.40;;;;;;;;;;5009892;28;20491;-62
2021/08/14 12:34:42;;;;;;;1.13;0.40;;;;;;;;;;4999177;28;20042;-61
2021/08/14 12:37:09;;;;;;;0.60;0.30;;;;;;;;;;5004455;28;20550;-62
2021/08/14 12:39:46;;;;;;;0.68;0.32;;;;;;;;;;4992949;28;20050;-61
2021/08/14 12:42:16;;;;;;;0.43;0.40;;;;;;;;;;5011512;28;20076;-61
2021/08/14 12:44:43;;;;;;;2.60;0.40;;;;;;;;;;5002238;28;20045;-61
2021/08/14 12:47:09;;;;;;;0.35;0.35;;;;;;;;;;5011255;28;20506;-62
2021/08/14 12:49:36;;;;;;;0.65;0.40;;;;;;;;;;5007650;28;20053;-62
2021/08/14 12:52:04;;;;;;;0.40;0.40;;;;;;;;;;4996114;28;20137;-62
2021/08/14 12:54:35;;;;;;;0.40;0.40;;;;;;;;;;5009563;28;20045;-62
2021/08/14 12:57:03;;;;;;;0.67;0.40;;;;;;;;;;5008233;28;20038;-62
2021/08/14 12:59:30;;;;;;;1.15;0.38;;;;;;;;;;5011622;28;20104;-62
2021/08/14 13:01:58;;;;;;;0.30;0.30;;;;;;;;;;5006113;28;20145;-62
2021/08/14 13:04:25;;;;;;;0.40;0.30;;;;;;;;;;4997198;28;20065;-62
2021/08/14 13:06:52;;;;;;;0.68;0.40;;;;;;;;;;4998520;28;20100;-62
2021/08/14 13:09:19;;;;;;;0.30;0.30;;;;;;;;;;5002807;28;20038;-61
2021/08/14 13:11:46;;;;;;;0.30;0.30;;;;;;;;;;5010464;28;20057;-62
2021/08/14 13:14:17;;;;;;;0.30;0.30;;;;;;;;;;5009230;28;20084;-62
2021/08/14 13:16:44;;;;;;;0.40;0.40;;;;;;;;;;5008958;28;20120;-62
2021/08/14 13:19:11;;;;;;;0.88;0.40;;;;;;;;;;5004481;28;20112;-62
2021/08/14 13:21:37;;;;;;;0.93;0.40;;;;;;;;;;5004524;28;20120;-61
2021/08/14 13:24:05;;;;;;;0.40;0.30;;;;;;;;;;4992055;28;20042;-61
2021/08/14 13:26:32;;;;;;;0.30;0.30;;;;;;;;;;5016875;28;20473;-62
2021/08/14 13:28:59;;;;;;;0.40;0.40;;;;;;;;;;5011402;28;20054;-62
2021/08/14 13:31:25;;;;;;;0.30;0.30;;;;;;;;;;5003722;28;20073;-62
2021/08/14 13:33:54;;;;;;;0.40;0.32;;;;;;;;;;5005037;28;20045;-62
2021/08/14 13:36:20;;;;;;;1.30;0.40;;;;;;;;;;4997315;28;20053;-62
2021/08/14 13:38:47;;;;;;;0.70;0.30;;;;;;;;;;5007786;28;20060;-62
2021/08/14 13:41:17;;;;;;;0.43;0.30;;;;;;;;;;5006302;28;20046;-61
2021/08/14 13:43:44;;;;;;;0.30;0.30;;;;;;;;;;5006753;28;20060;-61
2021/08/14 13:46:11;;;;;;;0.65;0.40;;;;;;;;;;5009070;28;20045;-61
2021/08/14 13:48:38;;;;;;;0.30;0.30;;;;;;;;;;5003233;28;20049;-61
2021/08/14 13:51:05;;;;;;;0.40;0.40;;;;;;;;;;5004999;28;20082;-61
2021/08/14 13:53:32;;;;;;;2.30;0.30;;;;;;;;;;5007075;28;20033;-61
2021/08/14 13:55:58;;;;;;;1.55;0.32;;;;;;;;;;5001210;28;20084;-61
2021/08/14 13:58:25;;;;;;;0.40;0.30;;;;;;;;;;5006429;28;20054;-62
2021/08/14 14:00:52;;;;;;;0.85;0.30;;;;;;;;;;5001196;28;20056;-61
2021/08/14 14:03:19;;;;;;;0.77;0.30;;;;;;;;;;5006922;28;20041;-61
2021/08/14 14:05:46;;;;;;;1.75;0.50;;;;;;;;;;5002758;28;20056;-61
2021/08/14 14:08:13;;;;;;;0.47;0.40;;;;;;;;;;4999115;28;20052;-61
2021/08/14 14:10:40;;;;;;;1.45;0.30;;;;;;;;;;5006162;28;20045;-61
2021/08/14 14:13:06;;;;;;;2.47;0.35;;;;;;;;;;4999478;28;20122;-61
2021/08/14 14:15:33;;;;;;;0.43;0.40;;;;;;;;;;5004222;28;20045;-61
2021/08/14 14:18:00;;;;;;;1.33;0.30;;;;;;;;;;4995836;28;20033;-61
2021/08/14 14:20:27;;;;;;;0.40;0.30;;;;;;;;;;5006777;28;20474;-61
2021/08/14 14:22:54;;;;;;;1.45;0.30;;;;;;;;;;5000927;28;20042;-61
2021/08/14 14:25:22;;;;;;;0.30;0.30;;;;;;;;;;5003298;28;20038;-61
2021/08/14 14:27:49;;;;;;;2.00;0.30;;;;;;;;;;5007100;28;20050;-61
2021/08/14 14:30:16;;;;;;;3.03;0.40;;;;;;;;;;5007625;28;20398;-61
2021/08/14 14:32:43;;;;;;;0.50;0.40;;;;;;;;;;5008416;28;20042;-61
2021/08/14 14:35:10;;;;;;;0.30;0.30;;;;;;;;;;5001841;28;20046;-61
2021/08/14 14:37:38;;;;;;;1.75;0.30;;;;;;;;;;5007445;28;20046;-61
2021/08/14 14:40:05;;;;;;;0.40;0.30;;;;;;;;;;5008102;28;20469;-61
2021/08/14 14:42:32;;;;;;;0.63;0.30;;;;;;;;;;5007977;28;20045;-61
2021/08/14 14:44:58;;;;;;;0.30;0.30;;;;;;;;;;5003970;28;20383;-61
2021/08/14 14:47:25;;;;;;;0.35;0.30;;;;;;;;;;5008179;28;20054;-61
2021/08/14 14:49:53;;;;;;;0.40;0.30;;;;;;;;;;5000669;28;20129;-62